Time;durP1;ratioP1;P1;durP2;ratioP2;P2;SDS_P1;SDS_P2;PMS_P1;PMS_P2;Temp;Humidity;BMP_temperature;BMP_pressure;BME280_temperature;BME280_humidity;BME280_pressure;Samples;Min_cycle;Max_cycle;Signal;HPM_P1;HPM_P2
2023/08/12 00:02:24;;;;;;;8.80;4.07;;;18.10;99.90;;;;;;5066801;28;20230;-72
2023/08/12 00:05:15;;;;;;;11.27;3.97;;;18.00;99.90;;;;;;5079106;28;20236;-72
2023/08/12 00:08:06;;;;;;;10.85;3.88;;;18.00;99.90;;;;;;5085294;28;20219;-72
2023/08/12 00:10:55;;;;;;;6.80;4.03;;;18.00;99.90;;;;;;5073457;28;20311;-72
2023/08/12 00:13:44;;;;;;;7.88;3.75;;;18.00;99.90;;;;;;5081386;28;20230;-72
2023/08/12 00:16:36;;;;;;;9.10;3.55;;;18.00;99.90;;;;;;5077610;28;20342;-72
2023/08/12 00:19:25;;;;;;;10.70;3.90;;;18.00;99.90;;;;;;5084456;28;20220;-72
2023/08/12 00:22:15;;;;;;;11.85;3.90;;;18.00;99.90;;;;;;5080128;28;20276;-74
2023/08/12 00:25:05;;;;;;;12.10;4.25;;;18.00;99.90;;;;;;5084025;28;20724;-72
2023/08/12 00:27:55;;;;;;;7.80;3.95;;;17.90;99.90;;;;;;5067216;28;20216;-73
2023/08/12 00:30:43;;;;;;;9.27;4.07;;;17.80;99.90;;;;;;5080349;28;20720;-72
2023/08/12 00:33:32;;;;;;;7.63;3.88;;;17.90;99.90;;;;;;5064954;28;20238;-72
2023/08/12 00:36:21;;;;;;;9.43;3.90;;;17.80;99.90;;;;;;5083868;28;20798;-72
2023/08/12 00:39:12;;;;;;;12.77;4.25;;;17.80;99.90;;;;;;5078105;28;20790;-71
2023/08/12 00:42:01;;;;;;;9.10;4.20;;;17.80;99.90;;;;;;5065959;28;20819;-71
2023/08/12 00:44:50;;;;;;;13.63;4.50;;;17.70;99.90;;;;;;5067381;28;20232;-72
2023/08/12 00:47:39;;;;;;;7.82;4.07;;;17.70;99.90;;;;;;5079901;28;20254;-72
2023/08/12 00:50:30;;;;;;;6.72;3.80;;;17.70;99.90;;;;;;5057657;28;20251;-73
2023/08/12 00:53:20;;;;;;;12.43;4.70;;;17.60;99.90;;;;;;5068794;28;21477;-73
2023/08/12 00:56:11;;;;;;;10.88;4.15;;;17.50;99.90;;;;;;5085876;28;20263;-72
2023/08/12 00:59:02;;;;;;;9.18;4.22;;;17.60;99.90;;;;;;5069377;28;20242;-72
2023/08/12 01:01:51;;;;;;;8.88;4.55;;;17.60;99.90;;;;;;5070294;28;20214;-72
2023/08/12 01:04:41;;;;;;;9.88;4.43;;;17.60;99.90;;;;;;5064000;28;20215;-72
2023/08/12 01:07:31;;;;;;;10.70;4.65;;;17.50;99.90;;;;;;5079058;28;20235;-73
2023/08/12 01:10:21;;;;;;;6.43;3.95;;;17.50;99.90;;;;;;5085180;28;21965;-72
2023/08/12 01:13:22;;;;;;;10.38;4.63;;;17.50;99.90;;;;;;5067323;28;20231;-72
2023/08/12 01:16:14;;;;;;;7.93;4.28;;;17.50;99.90;;;;;;5066949;28;20258;-72
2023/08/12 01:19:05;;;;;;;12.32;4.90;;;17.40;99.90;;;;;;5086673;28;20651;-72
2023/08/12 01:21:57;;;;;;;10.27;4.50;;;17.40;99.90;;;;;;5083849;28;21072;-71
2023/08/12 01:24:47;;;;;;;7.68;4.35;;;17.40;99.90;;;;;;5069393;28;20250;-72
2023/08/12 01:27:37;;;;;;;12.63;4.45;;;17.40;99.90;;;;;;5071524;28;20329;-71
2023/08/12 01:30:26;;;;;;;8.15;4.30;;;17.40;99.90;;;;;;5081422;28;20235;-72
2023/08/12 01:33:22;;;;;;;8.98;4.28;;;17.30;99.90;;;;;;5064924;28;20484;-71
2023/08/12 01:36:15;;;;;;;10.65;4.32;;;17.30;99.90;;;;;;5082125;28;20580;-71
2023/08/12 01:39:05;;;;;;;7.68;4.53;;;17.30;99.90;;;;;;5074355;28;20231;-72
2023/08/12 01:41:57;;;;;;;10.70;4.68;;;17.20;99.90;;;;;;5065621;28;20636;-71
2023/08/12 01:44:46;;;;;;;6.32;3.85;;;17.20;99.90;;;;;;5101651;27;20227;-71
2023/08/12 01:47:35;;;;;;;12.68;4.82;;;17.10;99.90;;;;;;5082350;28;20361;-71
2023/08/12 01:50:25;;;;;;;10.45;4.32;;;17.10;99.90;;;;;;5082409;28;20498;-72
2023/08/12 01:53:14;;;;;;;11.13;4.85;;;17.10;99.90;;;;;;5063851;28;20227;-72
2023/08/12 01:56:03;;;;;;;11.68;4.13;;;17.10;99.90;;;;;;5080891;28;20212;-72
2023/08/12 01:58:54;;;;;;;14.23;4.53;;;17.00;99.90;;;;;;5074223;28;20306;-72
2023/08/12 02:01:43;;;;;;;10.95;4.20;;;17.10;99.90;;;;;;5074858;28;20222;-72
2023/08/12 02:04:32;;;;;;;8.57;4.00;;;17.00;99.90;;;;;;5062478;28;20228;-72
2023/08/12 02:07:21;;;;;;;10.55;4.55;;;17.00;99.90;;;;;;5066979;28;20231;-72
2023/08/12 02:10:10;;;;;;;9.98;4.60;;;17.10;99.90;;;;;;5077253;28;20702;-72
2023/08/12 02:12:59;;;;;;;9.75;4.22;;;17.10;99.90;;;;;;5070249;28;20306;-72
2023/08/12 02:15:50;;;;;;;15.90;4.82;;;17.00;99.90;;;;;;5068596;28;20215;-72
2023/08/12 02:18:39;;;;;;;14.82;5.10;;;17.00;99.90;;;;;;5080554;28;20227;-72
2023/08/12 02:21:28;;;;;;;7.22;4.65;;;17.10;99.90;;;;;;5067724;28;20312;-71
2023/08/12 02:24:16;;;;;;;16.05;5.10;;;17.00;99.90;;;;;;5092742;28;20747;-72
2023/08/12 02:27:05;;;;;;;9.57;5.00;;;16.90;99.90;;;;;;5082683;28;20325;-72
2023/08/12 02:29:55;;;;;;;8.48;4.72;;;16.90;99.90;;;;;;5062387;28;20995;-72
2023/08/12 02:32:46;;;;;;;12.25;5.03;;;16.80;99.90;;;;;;5080532;28;20908;-72
2023/08/12 02:35:36;;;;;;;10.73;4.53;;;16.90;99.90;;;;;;5068257;28;20337;-71
2023/08/12 02:38:25;;;;;;;13.45;4.75;;;16.90;99.90;;;;;;5072752;28;20396;-72
2023/08/12 02:41:14;;;;;;;9.73;4.82;;;16.90;99.90;;;;;;5069551;28;20262;-72
2023/08/12 02:44:04;;;;;;;9.77;4.93;;;16.90;99.90;;;;;;5073817;28;20247;-72
2023/08/12 02:46:55;;;;;;;10.32;5.40;;;16.80;99.90;;;;;;5073582;28;20273;-73
2023/08/12 02:49:46;;;;;;;10.90;4.75;;;16.80;99.90;;;;;;5081398;28;20293;-72
2023/08/12 02:52:35;;;;;;;10.80;5.50;;;16.70;99.90;;;;;;5079462;28;20232;-72
2023/08/12 02:55:24;;;;;;;9.63;4.63;;;16.70;99.90;;;;;;5070183;28;20334;-71
2023/08/12 02:58:14;;;;;;;10.23;5.10;;;16.70;99.90;;;;;;5087998;28;20223;-72
2023/08/12 03:01:04;;;;;;;12.90;5.53;;;16.70;99.90;;;;;;5095071;27;20215;-73
2023/08/12 03:03:52;;;;;;;12.98;4.88;;;16.60;99.90;;;;;;5078322;28;20280;-72
2023/08/12 03:06:44;;;;;;;9.27;5.32;;;16.70;99.90;;;;;;5073707;28;20322;-73
2023/08/12 03:09:33;;;;;;;13.00;5.63;;;16.70;99.90;;;;;;5057650;28;20231;-72
2023/08/12 03:12:22;;;;;;;14.45;5.38;;;16.60;99.90;;;;;;5035105;28;20680;-71
2023/08/12 03:15:12;;;;;;;12.57;4.82;;;16.50;99.90;;;;;;5062409;28;20227;-72
2023/08/12 03:18:01;;;;;;;12.40;5.55;;;16.60;99.90;;;;;;5046551;28;20215;-71
2023/08/12 03:20:50;;;;;;;13.75;5.32;;;16.60;99.90;;;;;;5072264;28;20231;-72
2023/08/12 03:23:43;;;;;;;11.95;5.38;;;16.60;99.90;;;;;;5050722;28;20216;-72
2023/08/12 03:26:32;;;;;;;11.68;5.93;;;16.60;99.90;;;;;;5047893;28;20651;-72
2023/08/12 03:29:21;;;;;;;11.15;5.70;;;16.60;99.90;;;;;;5069440;28;20956;-71
2023/08/12 03:32:10;;;;;;;9.45;5.30;;;16.50;99.90;;;;;;5044816;28;20786;-72
2023/08/12 03:35:00;;;;;;;14.63;5.57;;;16.60;99.90;;;;;;5071225;28;20251;-73
2023/08/12 03:37:49;;;;;;;15.10;5.72;;;16.60;99.90;;;;;;5045109;28;20216;-71
2023/08/12 03:40:41;;;;;;;10.85;5.00;;;16.60;99.90;;;;;;5038765;28;20278;-72
2023/08/12 03:43:33;;;;;;;12.57;5.35;;;16.60;99.90;;;;;;5036933;28;20304;-72
2023/08/12 03:46:22;;;;;;;14.35;5.75;;;16.50;99.90;;;;;;5061120;28;20224;-72
2023/08/12 03:49:12;;;;;;;15.07;5.97;;;16.60;99.90;;;;;;5071919;28;20228;-73
2023/08/12 03:52:03;;;;;;;14.30;5.72;;;16.60;99.90;;;;;;5048448;28;20246;-72
2023/08/12 03:54:52;;;;;;;13.35;5.43;;;16.70;99.90;;;;;;5046555;28;20254;-72
2023/08/12 03:57:45;;;;;;;16.02;5.18;;;16.60;99.90;;;;;;5075162;28;20227;-72
2023/08/12 04:00:34;;;;;;;15.40;5.47;;;16.70;99.90;;;;;;5055855;28;20247;-72
2023/08/12 04:03:24;;;;;;;12.15;5.70;;;16.70;99.90;;;;;;5070143;28;20239;-71
2023/08/12 04:06:14;;;;;;;11.05;5.78;;;16.80;99.90;;;;;;5074840;28;20277;-72
2023/08/12 04:09:04;;;;;;;11.68;5.40;;;16.70;99.90;;;;;;5059900;28;20747;-72
2023/08/12 04:11:52;;;;;;;11.45;5.25;;;16.80;99.90;;;;;;5074330;28;20298;-72
2023/08/12 04:14:43;;;;;;;15.10;5.78;;;16.90;99.90;;;;;;5103080;27;20219;-72
2023/08/12 04:17:33;;;;;;;11.10;5.72;;;17.00;99.90;;;;;;5078177;28;20796;-72
2023/08/12 04:20:23;;;;;;;9.90;5.22;;;17.10;99.90;;;;;;5066499;28;20896;-72
2023/08/12 04:23:12;;;;;;;13.18;5.40;;;17.10;99.90;;;;;;5079911;28;20251;-72
2023/08/12 04:26:01;;;;;;;13.35;5.57;;;17.20;99.90;;;;;;5059632;28;20220;-73
2023/08/12 04:28:51;;;;;;;10.25;5.80;;;17.30;99.90;;;;;;5073316;28;20272;-73
2023/08/12 04:31:43;;;;;;;10.23;5.10;;;17.40;99.90;;;;;;5080030;28;20228;-71
2023/08/12 04:34:33;;;;;;;14.45;5.85;;;17.30;99.90;;;;;;5068791;28;20219;-72
2023/08/12 04:37:23;;;;;;;17.05;5.25;;;17.50;99.90;;;;;;5063894;28;20220;-72
2023/08/12 04:40:12;;;;;;;11.05;5.82;;;17.50;99.90;;;;;;5065486;28;20604;-71
2023/08/12 04:43:02;;;;;;;13.57;5.97;;;17.70;99.90;;;;;;5090520;28;20226;-71
2023/08/12 04:45:51;;;;;;;15.25;6.40;;;17.80;99.90;;;;;;5075818;28;20531;-72
2023/08/12 04:48:43;;;;;;;12.38;5.68;;;17.70;99.90;;;;;;5064843;28;20224;-72
2023/08/12 04:51:32;;;;;;;11.20;5.68;;;17.80;99.90;;;;;;5071864;28;20234;-71
2023/08/12 04:54:21;;;;;;;12.95;5.93;;;18.00;99.90;;;;;;5070922;28;20226;-72
2023/08/12 04:57:10;;;;;;;15.35;5.47;;;18.00;99.90;;;;;;5085552;28;20275;-71
2023/08/12 05:00:00;;;;;;;11.90;5.88;;;18.10;99.90;;;;;;5082831;28;20223;-71
2023/08/12 05:02:49;;;;;;;11.48;4.72;;;18.30;99.90;;;;;;5065146;28;20230;-72
2023/08/12 05:05:39;;;;;;;14.05;5.10;;;18.40;99.90;;;;;;5073932;28;20223;-71
2023/08/12 05:08:29;;;;;;;11.52;4.82;;;18.50;99.90;;;;;;5072347;28;20223;-71
2023/08/12 05:11:18;;;;;;;11.48;4.75;;;18.60;99.90;;;;;;5076783;28;20245;-71
2023/08/12 05:14:08;;;;;;;15.18;5.25;;;18.70;99.90;;;;;;5075699;28;20707;-71
2023/08/12 05:16:57;;;;;;;14.18;5.13;;;18.90;99.90;;;;;;5092194;28;20556;-72
2023/08/12 05:19:46;;;;;;;12.20;5.10;;;19.00;99.90;;;;;;5071675;28;20238;-72
2023/08/12 05:22:36;;;;;;;9.73;4.93;;;18.90;99.90;;;;;;5085689;28;20241;-71
2023/08/12 05:25:25;;;;;;;11.02;5.15;;;19.00;99.90;;;;;;5080834;27;20228;-72
2023/08/12 05:28:13;;;;;;;12.45;4.53;;;19.10;99.90;;;;;;5088392;27;20278;-71
2023/08/12 05:31:03;;;;;;;12.80;4.80;;;19.20;99.90;;;;;;5077265;28;20219;-72
2023/08/12 05:33:52;;;;;;;10.95;4.70;;;19.30;99.90;;;;;;5085544;28;20207;-71
2023/08/12 05:36:41;;;;;;;7.43;4.93;;;19.30;99.90;;;;;;5079482;28;20226;-72
2023/08/12 05:39:32;;;;;;;17.52;5.70;;;19.40;99.90;;;;;;5093901;27;20715;-72
2023/08/12 05:42:21;;;;;;;15.40;5.25;;;19.50;99.90;;;;;;5094289;27;20243;-71
2023/08/12 05:45:11;;;;;;;15.52;5.20;;;19.70;99.90;;;;;;5080370;28;20766;-71
2023/08/12 05:48:00;;;;;;;12.25;5.15;;;19.90;99.90;;;;;;5083254;28;20236;-72
2023/08/12 05:50:49;;;;;;;9.88;5.20;;;20.40;99.90;;;;;;5082448;28;20265;-71
2023/08/12 05:53:38;;;;;;;11.95;5.28;;;20.60;99.90;;;;;;5099444;27;20314;-71
2023/08/12 05:56:28;;;;;;;21.52;5.50;;;20.50;99.90;;;;;;5082520;28;20417;-71
2023/08/12 05:59:16;;;;;;;9.82;5.20;;;20.50;99.90;;;;;;5097841;27;20234;-72
2023/08/12 06:02:06;;;;;;;7.57;5.03;;;20.50;99.90;;;;;;5076270;28;20220;-72
2023/08/12 06:04:55;;;;;;;9.63;4.50;;;20.40;99.90;;;;;;5065688;28;20216;-73
2023/08/12 06:07:44;;;;;;;9.70;4.50;;;20.50;99.90;;;;;;5082950;28;20231;-72
2023/08/12 06:10:33;;;;;;;7.90;4.70;;;20.60;99.90;;;;;;5068288;28;20311;-72
2023/08/12 06:13:27;;;;;;;8.73;4.60;;;20.50;99.90;;;;;;5080928;28;20654;-72
2023/08/12 06:16:16;;;;;;;15.10;4.70;;;20.60;99.90;;;;;;5066590;28;20830;-73
2023/08/12 06:19:05;;;;;;;7.18;4.60;;;20.70;99.90;;;;;;5081430;28;20216;-72
2023/08/12 06:21:57;;;;;;;10.80;4.95;;;20.80;99.90;;;;;;5066215;28;20756;-72
2023/08/12 06:24:46;;;;;;;7.10;4.00;;;20.80;99.90;;;;;;5070251;28;20227;-73
2023/08/12 06:27:35;;;;;;;8.25;4.30;;;20.90;99.90;;;;;;5093460;27;20230;-71
2023/08/12 06:30:25;;;;;;;6.90;4.13;;;21.00;99.90;;;;;;5068016;28;20238;-71
2023/08/12 06:33:14;;;;;;;7.25;4.03;;;21.20;99.90;;;;;;5069827;28;20349;-73
2023/08/12 06:36:03;;;;;;;9.50;4.47;;;22.40;99.90;;;;;;5057480;28;20224;-72
2023/08/12 06:38:52;;;;;;;6.43;3.83;;;22.60;99.90;;;;;;5069754;28;20223;-71
2023/08/12 06:41:43;;;;;;;11.50;4.53;;;22.30;99.90;;;;;;5067205;28;20242;-71
2023/08/12 06:44:33;;;;;;;9.43;3.75;;;22.20;99.90;;;;;;5064001;28;20231;-72
2023/08/12 06:47:23;;;;;;;6.63;3.67;;;22.00;99.90;;;;;;5085636;28;20223;-73
2023/08/12 06:50:12;;;;;;;7.07;3.70;;;22.10;99.90;;;;;;5073437;28;20835;-72
2023/08/12 06:53:01;;;;;;;7.70;3.25;;;22.40;99.90;;;;;;5074532;28;20224;-71
2023/08/12 06:55:50;;;;;;;6.55;3.35;;;22.40;99.90;;;;;;5076277;28;20277;-71
2023/08/12 06:58:38;;;;;;;9.63;3.03;;;22.30;99.90;;;;;;5063592;28;20598;-72
2023/08/12 07:01:27;;;;;;;4.45;2.78;;;22.40;99.90;;;;;;5080565;28;20254;-71
2023/08/12 07:04:17;;;;;;;4.07;2.95;;;22.40;99.90;;;;;;5071545;28;20235;-71
2023/08/12 07:07:06;;;;;;;7.25;2.88;;;22.40;99.90;;;;;;5060016;28;20219;-72
2023/08/12 07:09:56;;;;;;;6.03;2.58;;;22.40;99.90;;;;;;5066486;28;20251;-71
2023/08/12 07:12:44;;;;;;;8.80;2.50;;;22.40;99.90;;;;;;5074476;28;20328;-72
2023/08/12 07:15:33;;;;;;;4.22;2.50;;;22.60;99.90;;;;;;5068016;28;20775;-71
2023/08/12 07:18:23;;;;;;;4.55;2.45;;;22.80;99.90;;;;;;5085860;28;20223;-72
2023/08/12 07:21:13;;;;;;;5.55;2.22;;;23.00;99.90;;;;;;5066041;28;20216;-72
2023/08/12 07:24:02;;;;;;;5.72;2.03;;;23.00;99.90;;;;;;5072029;28;20713;-72
2023/08/12 07:26:52;;;;;;;5.97;2.13;;;23.20;98.80;;;;;;5080390;28;20304;-71
2023/08/12 07:29:43;;;;;;;6.03;2.00;;;23.10;97.50;;;;;;5077918;28;20220;-71
2023/08/12 07:32:32;;;;;;;5.53;1.88;;;23.30;96.40;;;;;;5075858;28;20232;-71
2023/08/12 07:35:21;;;;;;;4.53;2.00;;;23.40;96.20;;;;;;5080927;28;20765;-72
2023/08/12 07:38:12;;;;;;;4.10;1.77;;;23.50;95.00;;;;;;5075447;28;20274;-71
2023/08/12 07:41:02;;;;;;;2.33;1.50;;;23.60;92.40;;;;;;5067034;28;20216;-72
2023/08/12 07:43:51;;;;;;;8.20;1.92;;;23.90;95.00;;;;;;5081495;28;20235;-71
2023/08/12 07:46:42;;;;;;;6.88;2.13;;;23.80;91.30;;;;;;5082608;28;20576;-71
2023/08/12 07:49:31;;;;;;;2.95;1.40;;;23.90;92.30;;;;;;5064996;28;21011;-71
2023/08/12 07:52:20;;;;;;;4.00;1.60;;;24.00;94.70;;;;;;5076614;28;20350;-71
2023/08/12 07:55:10;;;;;;;7.53;2.05;;;24.10;93.80;;;;;;5058879;28;20339;-71
2023/08/12 07:57:59;;;;;;;4.25;2.00;;;24.20;96.20;;;;;;5087186;27;20227;-71
2023/08/12 08:00:48;;;;;;;3.00;1.42;;;24.90;96.60;;;;;;5082553;28;20234;-71
2023/08/12 08:03:36;;;;;;;5.70;1.95;;;25.20;92.50;;;;;;5075770;28;20223;-71
2023/08/12 08:06:25;;;;;;;3.92;2.08;;;25.40;90.20;;;;;;5082191;28;20721;-71
2023/08/12 08:09:14;;;;;;;5.57;1.98;;;25.90;90.60;;;;;;5073803;28;20234;-72
2023/08/12 08:12:09;;;;;;;4.32;2.20;;;26.00;88.00;;;;;;5063720;28;20725;-71
2023/08/12 08:14:58;;;;;;;8.18;1.85;;;26.20;88.80;;;;;;5047703;28;20269;-72
2023/08/12 08:17:47;;;;;;;3.97;1.92;;;26.50;86.60;;;;;;5071039;28;20223;-73
2023/08/12 08:20:36;;;;;;;9.45;2.30;;;26.80;88.10;;;;;;5058422;28;20220;-71
2023/08/12 08:23:25;;;;;;;6.82;1.90;;;26.90;84.20;;;;;;5042746;28;20603;-71
2023/08/12 08:26:15;;;;;;;3.00;2.10;;;27.30;86.40;;;;;;5058123;28;20292;-72
2023/08/12 08:29:05;;;;;;;3.63;2.10;;;27.80;85.00;;;;;;5048510;28;20216;-72
2023/08/12 08:31:55;;;;;;;6.55;2.00;;;28.00;88.00;;;;;;5058937;28;20721;-72
2023/08/12 08:34:44;;;;;;;7.13;1.85;;;27.90;77.40;;;;;;5055107;28;20637;-72
2023/08/12 08:37:33;;;;;;;4.15;2.00;;;28.10;76.60;;;;;;5050621;28;20224;-72
2023/08/12 08:40:22;;;;;;;5.20;2.42;;;28.20;76.00;;;;;;5054716;28;20397;-71
2023/08/12 08:43:13;;;;;;;5.28;2.20;;;28.50;80.90;;;;;;5066926;28;20224;-71
2023/08/12 08:46:04;;;;;;;4.78;2.05;;;28.90;79.50;;;;;;5041410;28;20707;-72
2023/08/12 08:48:54;;;;;;;3.90;1.77;;;29.00;72.60;;;;;;5039624;28;20907;-71
2023/08/12 08:51:43;;;;;;;4.53;1.83;;;29.60;83.00;;;;;;5061986;28;20234;-71
2023/08/12 08:54:33;;;;;;;4.30;1.85;;;29.50;74.20;;;;;;5042805;28;20235;-72
2023/08/12 08:57:22;;;;;;;4.43;2.15;;;29.90;72.10;;;;;;5044416;28;20774;-72
2023/08/12 09:00:16;;;;;;;5.03;2.25;;;30.40;78.80;;;;;;5054580;28;20287;-71
2023/08/12 09:03:08;;;;;;;7.50;2.25;;;30.40;77.60;;;;;;5055263;28;20225;-72
2023/08/12 09:05:58;;;;;;;4.82;2.05;;;30.60;74.50;;;;;;5068499;28;20220;-72
2023/08/12 09:08:49;;;;;;;5.22;2.30;;;30.20;70.50;;;;;;5047410;28;20219;-72
2023/08/12 09:11:41;;;;;;;6.93;2.13;;;30.00;67.70;;;;;;5074843;28;20239;-72
2023/08/12 09:14:30;;;;;;;7.25;2.33;;;30.10;71.50;;;;;;5086555;28;20253;-71
2023/08/12 09:17:18;;;;;;;5.88;2.13;;;30.50;75.70;;;;;;5080454;28;20247;-72
2023/08/12 09:20:11;;;;;;;5.22;2.13;;;30.00;70.90;;;;;;5088226;28;20219;-72
2023/08/12 09:23:02;;;;;;;6.38;2.15;;;30.30;69.40;;;;;;5083554;28;20227;-71
2023/08/12 09:25:51;;;;;;;4.40;1.80;;;30.80;68.10;;;;;;5077249;28;20237;-72
2023/08/12 09:28:40;;;;;;;4.97;2.30;;;31.10;65.90;;;;;;5067708;28;20302;-71
2023/08/12 09:31:32;;;;;;;5.88;2.20;;;31.70;72.10;;;;;;5066269;28;20360;-71
2023/08/12 09:34:21;;;;;;;3.80;2.08;;;32.40;68.00;;;;;;5079041;28;20231;-71
2023/08/12 09:37:13;;;;;;;4.53;2.00;;;32.70;65.70;;;;;;5083348;28;20278;-71
2023/08/12 09:40:05;;;;;;;6.20;2.10;;;33.10;66.10;;;;;;5060543;28;20289;-72
2023/08/12 09:42:55;;;;;;;4.75;1.95;;;33.80;61.50;;;;;;5072321;28;20274;-72
2023/08/12 09:45:46;;;;;;;5.40;2.47;;;33.90;64.80;;;;;;5083631;28;20309;-71
2023/08/12 09:48:35;;;;;;;3.35;2.20;;;34.30;67.10;;;;;;5065684;28;20709;-71
2023/08/12 09:51:24;;;;;;;5.93;1.92;;;34.70;64.10;;;;;;5085556;28;20749;-71
2023/08/12 09:54:15;;;;;;;5.00;1.90;;;35.30;64.10;;;;;;5082365;28;20225;-72
2023/08/12 09:57:07;;;;;;;4.30;2.42;;;35.90;64.80;;;;;;5065444;28;20219;-71
2023/08/12 10:00:11;;;;;;;7.90;2.53;;;36.90;62.60;;;;;;5078639;28;20227;-71
2023/08/12 10:03:05;;;;;;;3.35;2.38;;;37.50;61.40;;;;;;5081143;28;20701;-72
2023/08/12 10:05:58;;;;;;;5.53;2.30;;;37.80;55.00;;;;;;5091187;28;20238;-71
2023/08/12 10:08:48;;;;;;;3.63;2.10;;;37.90;57.30;;;;;;5084010;28;20220;-71
2023/08/12 10:11:39;;;;;;;5.68;2.08;;;38.00;55.50;;;;;;5068825;28;20280;-71
2023/08/12 10:14:29;;;;;;;4.05;2.38;;;38.20;55.00;;;;;;5062618;28;20238;-71
2023/08/12 10:17:18;;;;;;;6.38;2.20;;;38.00;53.90;;;;;;5085054;28;20227;-71
2023/08/12 10:20:30;;;;;;;4.93;1.95;;;38.20;55.10;;;;;;5073370;28;20257;-72
2023/08/12 10:23:20;;;;;;;6.72;2.10;;;38.80;54.80;;;;;;5092032;28;20283;-71
2023/08/12 10:26:10;;;;;;;4.00;2.22;;;39.30;51.70;;;;;;5086492;27;20233;-71
2023/08/12 10:29:00;;;;;;;4.00;2.00;;;39.70;51.90;;;;;;5070148;28;20227;-71
2023/08/12 10:31:50;;;;;;;4.43;1.90;;;39.40;50.30;;;;;;5069633;28;20378;-71
2023/08/12 10:34:38;;;;;;;6.88;3.47;;;39.70;49.00;;;;;;5082393;28;20211;-72
2023/08/12 10:37:28;;;;;;;3.35;2.00;;;39.50;49.20;;;;;;5098378;27;20589;-72
2023/08/12 10:40:22;;;;;;;3.58;2.53;;;39.10;48.10;;;;;;5057702;28;20216;-71
2023/08/12 10:43:12;;;;;;;5.97;2.38;;;40.30;49.20;;;;;;5079093;28;20227;-71
2023/08/12 10:46:03;;;;;;;4.78;1.88;;;40.60;47.00;;;;;;5081344;28;20351;-71
2023/08/12 10:49:01;;;;;;;5.88;2.13;;;41.70;48.80;;;;;;5090280;27;20289;-71
2023/08/12 10:51:52;;;;;;;2.92;2.25;;;41.90;47.50;;;;;;5091861;28;20223;-72
2023/08/12 10:54:41;;;;;;;5.85;2.28;;;41.40;46.00;;;;;;5083382;28;20355;-71
2023/08/12 10:57:38;;;;;;;2.45;1.85;;;42.30;47.20;;;;;;5060029;28;20216;-72
2023/08/12 11:00:28;;;;;;;4.80;2.20;;;42.10;44.40;;;;;;5088275;28;20234;-71
2023/08/12 11:03:20;;;;;;;5.78;2.17;;;42.50;47.20;;;;;;5083513;28;20887;-71
2023/08/12 11:06:11;;;;;;;4.78;2.03;;;43.10;43.70;;;;;;5085915;28;20227;-71
2023/08/12 11:09:00;;;;;;;7.50;2.22;;;43.40;45.90;;;;;;5079678;28;20296;-72
2023/08/12 11:11:59;;;;;;;4.63;2.15;;;43.70;45.20;;;;;;5066991;28;20645;-71
2023/08/12 11:14:49;;;;;;;7.30;2.13;;;42.90;42.80;;;;;;5059474;28;20257;-71
2023/08/12 11:17:40;;;;;;;3.38;1.88;;;43.00;44.50;;;;;;5093112;27;20211;-71
2023/08/12 11:20:30;;;;;;;4.03;2.03;;;43.10;43.40;;;;;;5083668;28;20233;-71
2023/08/12 11:23:20;;;;;;;4.88;2.00;;;42.80;43.60;;;;;;5067595;28;20320;-72
2023/08/12 11:26:09;;;;;;;5.55;2.22;;;42.50;43.10;;;;;;5079091;28;20211;-71
2023/08/12 11:28:58;;;;;;;4.32;2.20;;;44.20;42.20;;;;;;5072325;28;20218;-70
2023/08/12 11:31:47;;;;;;;6.22;2.40;;;44.50;41.50;;;;;;5064774;28;20226;-71
2023/08/12 11:34:36;;;;;;;4.38;2.17;;;44.90;41.80;;;;;;5058000;28;20233;-71
2023/08/12 11:37:27;;;;;;;4.60;2.08;;;44.70;41.70;;;;;;5063395;28;20311;-71
2023/08/12 11:40:18;;;;;;;3.65;2.20;;;45.80;42.50;;;;;;5084571;28;20334;-70
2023/08/12 11:43:07;;;;;;;3.85;2.50;;;46.60;42.70;;;;;;5066913;28;20219;-71
2023/08/12 11:45:57;;;;;;;5.00;3.08;;;47.00;42.10;;;;;;5065816;28;20615;-70
2023/08/12 11:48:46;;;;;;;4.40;2.10;;;47.60;42.10;;;;;;5074025;28;20709;-70
2023/08/12 11:51:38;;;;;;;4.07;2.10;;;48.50;38.20;;;;;;5084704;28;20227;-71
2023/08/12 11:54:29;;;;;;;4.43;2.80;;;48.30;37.90;;;;;;5063859;28;20277;-71
2023/08/12 11:57:18;;;;;;;4.80;3.00;;;48.50;39.40;;;;;;5069449;28;20302;-71
2023/08/12 12:00:13;;;;;;;4.88;2.58;;;49.70;40.40;;;;;;5096222;27;20293;-71
2023/08/12 12:03:07;;;;;;;4.75;2.30;;;49.90;38.70;;;;;;5079479;28;20223;-71
2023/08/12 12:05:57;;;;;;;4.50;2.55;;;50.30;37.50;;;;;;5075481;28;20960;-70
2023/08/12 12:08:46;;;;;;;4.20;1.90;;;50.50;38.40;;;;;;5080473;28;20594;-71
2023/08/12 12:11:37;;;;;;;6.43;2.03;;;49.40;36.80;;;;;;5082246;28;20245;-71
2023/08/12 12:14:27;;;;;;;3.35;1.77;;;48.30;37.00;;;;;;5083323;28;20727;-71
2023/08/12 12:17:16;;;;;;;3.35;1.80;;;48.30;36.70;;;;;;5066026;28;21118;-71
2023/08/12 12:20:05;;;;;;;4.07;1.98;;;47.50;35.60;;;;;;5074601;28;20243;-71
2023/08/12 12:22:57;;;;;;;2.88;2.05;;;48.00;35.80;;;;;;5066596;28;20226;-71
2023/08/12 12:25:46;;;;;;;1.98;1.77;;;50.40;35.30;;;;;;5083603;28;20260;-70
2023/08/12 12:28:36;;;;;;;2.67;2.30;;;49.70;35.60;;;;;;5081338;28;20240;-71
2023/08/12 12:31:25;;;;;;;9.70;2.83;;;46.80;37.90;;;;;;5071913;28;20235;-71
2023/08/12 12:34:15;;;;;;;4.28;2.50;;;40.90;40.80;;;;;;5059738;28;20796;-72
2023/08/12 12:37:04;;;;;;;5.78;2.20;;;37.70;43.20;;;;;;5082025;28;20226;-71
2023/08/12 12:39:53;;;;;;;5.55;2.47;;;35.30;46.00;;;;;;5062715;28;20878;-71
2023/08/12 12:42:42;;;;;;;5.00;2.65;;;33.90;48.40;;;;;;5074756;28;20267;-72
2023/08/12 12:45:32;;;;;;;5.82;2.97;;;33.10;51.90;;;;;;5079348;28;20229;-71
2023/08/12 12:48:22;;;;;;;6.53;5.55;;;32.20;51.80;;;;;;5081913;28;20222;-71
2023/08/12 12:51:11;;;;;;;5.30;2.35;;;31.60;54.70;;;;;;5064497;28;20234;-71
2023/08/12 12:54:00;;;;;;;3.63;2.10;;;31.20;53.10;;;;;;5081525;28;20333;-71
2023/08/12 12:56:49;;;;;;;6.35;2.30;;;30.90;53.30;;;;;;5090680;28;20238;-71
2023/08/12 12:59:38;;;;;;;7.10;5.95;;;30.80;54.30;;;;;;5078973;28;20310;-71
2023/08/12 13:02:28;;;;;;;3.85;3.03;;;30.50;56.20;;;;;;5058873;28;20555;-71
2023/08/12 13:05:18;;;;;;;20.10;2.65;;;30.20;56.70;;;;;;5069669;28;20212;-72
2023/08/12 13:08:07;;;;;;;4.25;2.53;;;30.10;56.80;;;;;;5096796;28;20272;-70
2023/08/12 13:10:56;;;;;;;3.75;2.90;;;29.90;58.00;;;;;;5073041;28;20786;-70
2023/08/12 13:13:45;;;;;;;3.72;3.15;;;29.70;57.20;;;;;;5065134;28;20223;-72
2023/08/12 13:16:34;;;;;;;4.65;2.10;;;29.40;61.70;;;;;;5086788;28;20697;-72
2023/08/12 13:19:25;;;;;;;2.78;1.95;;;29.00;57.80;;;;;;5067525;28;20363;-72
2023/08/12 13:22:13;;;;;;;4.25;2.55;;;28.90;59.20;;;;;;5079084;28;20227;-72
2023/08/12 13:25:03;;;;;;;3.30;2.13;;;29.00;59.80;;;;;;5075234;28;20630;-72
2023/08/12 13:27:52;;;;;;;7.72;2.53;;;28.80;59.10;;;;;;5084920;28;20223;-72
2023/08/12 13:30:42;;;;;;;4.40;2.35;;;28.70;62.00;;;;;;5075963;28;20260;-71
2023/08/12 13:33:31;;;;;;;3.53;2.15;;;28.60;62.30;;;;;;5069924;28;20227;-72
2023/08/12 13:36:22;;;;;;;6.30;2.33;;;28.60;66.30;;;;;;5090059;27;20687;-72
2023/08/12 13:39:10;;;;;;;5.93;2.58;;;28.60;60.80;;;;;;5088948;28;20211;-71
2023/08/12 13:41:59;;;;;;;4.20;2.83;;;28.70;60.00;;;;;;5088755;27;20713;-72
2023/08/12 13:44:48;;;;;;;4.50;3.40;;;28.40;61.40;;;;;;5074141;28;20230;-72
2023/08/12 13:47:38;;;;;;;5.35;4.50;;;28.30;63.40;;;;;;5067100;28;20215;-71
2023/08/12 13:50:27;;;;;;;3.63;2.25;;;28.20;69.70;;;;;;5072464;28;20227;-72
2023/08/12 13:53:17;;;;;;;7.63;4.85;;;28.20;62.80;;;;;;5072173;28;21050;-71
2023/08/12 13:56:06;;;;;;;5.95;4.00;;;28.10;67.20;;;;;;5094574;27;20624;-71
2023/08/12 13:58:56;;;;;;;4.18;3.20;;;28.00;68.30;;;;;;5091918;28;20735;-71
2023/08/12 14:01:44;;;;;;;4.10;2.90;;;27.80;67.80;;;;;;5065673;28;20624;-72
2023/08/12 14:04:34;;;;;;;4.40;2.42;;;27.90;66.30;;;;;;5078577;28;20371;-71
2023/08/12 14:07:23;;;;;;;6.63;2.50;;;27.80;64.40;;;;;;5070200;28;20241;-71
2023/08/12 14:10:13;;;;;;;5.20;2.60;;;27.70;62.90;;;;;;5063951;28;20227;-72
2023/08/12 14:13:02;;;;;;;9.63;2.20;;;27.50;64.60;;;;;;5084246;28;20317;-72
2023/08/12 14:15:51;;;;;;;5.72;2.38;;;27.50;63.50;;;;;;5098766;28;20665;-71
2023/08/12 14:18:40;;;;;;;5.30;2.55;;;27.60;63.80;;;;;;5064456;28;20357;-71
2023/08/12 14:21:28;;;;;;;2.80;2.28;;;27.40;65.60;;;;;;5094844;28;20216;-71
2023/08/12 14:24:17;;;;;;;3.42;2.72;;;27.50;66.90;;;;;;5085864;28;20222;-71
2023/08/12 14:27:07;;;;;;;5.88;2.55;;;27.40;64.70;;;;;;5097279;27;20794;-72
2023/08/12 14:29:56;;;;;;;5.15;2.60;;;27.30;65.70;;;;;;5081472;28;20914;-71
2023/08/12 14:32:45;;;;;;;6.03;3.67;;;27.20;69.10;;;;;;5070476;28;20231;-71
2023/08/12 14:35:35;;;;;;;5.80;3.80;;;27.20;72.90;;;;;;5089773;28;20232;-72
2023/08/12 14:38:24;;;;;;;5.60;3.10;;;27.10;75.90;;;;;;5082788;28;20965;-71
2023/08/12 14:41:13;;;;;;;5.57;3.50;;;27.10;70.10;;;;;;5062569;28;20257;-71